Time,TemperatureF,DewpointF,PressureIn,WindDirection,WindDirectionDegrees,WindSpeedMPH,WindSpeedGustMPH,Humidity,HourlyPrecipIn,Conditions,Clouds,dailyrainin,SoftwareType,DateUTC
2013-05-29 00:06:00,-999.0,-99.9,30.06,North,-999,-999.0,-999.0,-999,-99.99,,,0.63,weatherlink.com 1.10,2013-05-29 04:06:00,
2013-05-29 00:21:00,-999.0,-99.9,30.06,North,-999,-999.0,-999.0,-999,-99.99,,,0.00,weatherlink.com 1.10,2013-05-29 04:21:00,
2013-05-29 00:36:00,-999.0,-99.9,30.05,North,-999,-999.0,-999.0,-999,-99.99,,,0.00,weatherlink.com 1.10,2013-05-29 04:36:00,
2013-05-29 00:51:00,-999.0,-99.9,30.04,North,-999,-999.0,-999.0,-999,-99.99,,,0.00,weatherlink.com 1.10,2013-05-29 04:51:00,
2013-05-29 01:06:00,-999.0,-99.9,30.04,North,-999,-999.0,-999.0,-999,-99.99,,,0.00,weatherlink.com 1.10,2013-05-29 05:06:00,
2013-05-29 01:21:00,-999.0,-99.9,30.04,North,-999,-999.0,-999.0,-999,-99.99,,,0.00,weatherlink.com 1.10,2013-05-29 05:21:00,
2013-05-29 01:36:00,-999.0,-99.9,30.04,North,-999,-999.0,-999.0,-999,-99.99,,,0.00,weatherlink.com 1.10,2013-05-29 05:36:00,
2013-05-29 01:51:00,-999.0,-99.9,30.05,North,-999,-999.0,-999.0,-999,-99.99,,,0.00,weatherlink.com 1.10,2013-05-29 05:51:00,
2013-05-29 02:06:00,-999.0,-99.9,30.05,North,-999,-999.0,-999.0,-999,-99.99,,,0.00,weatherlink.com 1.10,2013-05-29 06:06:00,
2013-05-29 02:21:00,-999.0,-99.9,30.04,North,-999,-999.0,-999.0,-999,-99.99,,,0.00,weatherlink.com 1.10,2013-05-29 06:21:00,
2013-05-29 02:36:00,-999.0,-99.9,30.03,North,-999,-999.0,-999.0,-999,-99.99,,,0.00,weatherlink.com 1.10,2013-05-29 06:36:00,
2013-05-29 02:51:00,-999.0,-99.9,30.03,North,-999,-999.0,-999.0,-999,-99.99,,,0.00,weatherlink.com 1.10,2013-05-29 06:51:00,
2013-05-29 03:06:00,-999.0,-99.9,30.03,North,-999,-999.0,-999.0,-999,-99.99,,,0.00,weatherlink.com 1.10,2013-05-29 07:06:00,
2013-05-29 03:21:00,-999.0,-99.9,30.03,North,-999,-999.0,-999.0,-999,-99.99,,,0.00,weatherlink.com 1.10,2013-05-29 07:21:00,
2013-05-29 03:36:00,-999.0,-99.9,30.03,North,-999,-999.0,-999.0,-999,-99.99,,,0.00,weatherlink.com 1.10,2013-05-29 07:36:00,
2013-05-29 03:51:00,-999.0,-99.9,30.04,North,-999,-999.0,-999.0,-999,-99.99,,,0.00,weatherlink.com 1.10,2013-05-29 07:51:00,
2013-05-29 04:06:00,-999.0,-99.9,30.03,North,-999,-999.0,-999.0,-999,-99.99,,,0.00,weatherlink.com 1.10,2013-05-29 08:06:00,
2013-05-29 04:21:00,-999.0,-99.9,30.02,North,-999,-999.0,-999.0,-999,-99.99,,,0.00,weatherlink.com 1.10,2013-05-29 08:21:00,
2013-05-29 04:36:00,-999.0,-99.9,30.02,North,-999,-999.0,-999.0,-999,-99.99,,,0.00,weatherlink.com 1.10,2013-05-29 08:36:00,
2013-05-29 04:51:00,-999.0,-99.9,30.02,North,-999,-999.0,-999.0,-999,-99.99,,,0.00,weatherlink.com 1.10,2013-05-29 08:51:00,
2013-05-29 05:06:00,-999.0,-99.9,30.02,North,-999,-999.0,-999.0,-999,-99.99,,,0.00,weatherlink.com 1.10,2013-05-29 09:06:00,
2013-05-29 05:21:00,-999.0,-99.9,30.04,North,-999,-999.0,-999.0,-999,-99.99,,,0.00,weatherlink.com 1.10,2013-05-29 09:21:00,
2013-05-29 05:36:00,-999.0,-99.9,30.06,North,-999,-999.0,-999.0,-999,-99.99,,,0.00,weatherlink.com 1.10,2013-05-29 09:36:00,
2013-05-29 05:51:00,-999.0,-99.9,30.08,North,-999,-999.0,-999.0,-999,-99.99,,,0.00,weatherlink.com 1.10,2013-05-29 09:51:00,
2013-05-29 06:06:00,-999.0,-99.9,30.10,North,-999,-999.0,-999.0,-999,-99.99,,,0.00,weatherlink.com 1.10,2013-05-29 10:06:00,
2013-05-29 06:21:00,-999.0,-99.9,30.10,North,-999,-999.0,-999.0,-999,-99.99,,,0.00,weatherlink.com 1.10,2013-05-29 10:21:00,
2013-05-29 06:36:00,-999.0,-99.9,30.09,North,-999,-999.0,-999.0,-999,-99.99,,,0.00,weatherlink.com 1.10,2013-05-29 10:36:00,
2013-05-29 06:51:00,-999.0,-99.9,30.07,North,-999,-999.0,-999.0,-999,-99.99,,,0.00,weatherlink.com 1.10,2013-05-29 10:51:00,
2013-05-29 07:06:00,-999.0,-99.9,30.07,North,-999,-999.0,-999.0,-999,-99.99,,,0.00,weatherlink.com 1.10,2013-05-29 11:06:00,
2013-05-29 07:21:00,-999.0,-99.9,30.10,North,-999,-999.0,-999.0,-999,-99.99,,,0.00,weatherlink.com 1.10,2013-05-29 11:21:00,
2013-05-29 07:36:00,-999.0,-99.9,30.11,North,-999,-999.0,-999.0,-999,-99.99,,,0.00,weatherlink.com 1.10,2013-05-29 11:36:00,
2013-05-29 07:51:00,-999.0,-99.9,30.09,North,-999,-999.0,-999.0,-999,-99.99,,,0.00,weatherlink.com 1.10,2013-05-29 11:51:00,
2013-05-29 08:06:00,-999.0,-99.9,30.09,North,-999,-999.0,-999.0,-999,-99.99,,,0.00,weatherlink.com 1.10,2013-05-29 12:06:00,
2013-05-29 08:21:00,-999.0,-99.9,30.08,North,-999,-999.0,-999.0,-999,-99.99,,,0.00,weatherlink.com 1.10,2013-05-29 12:21:00,
2013-05-29 08:36:00,-48.9,-99.9,30.07,SE,144,0.0,-999.0,-999,-99.99,,,0.00,weatherlink.com 1.10,2013-05-29 12:36:00,
2013-05-29 08:51:00,-46.7,-99.9,30.07,East,96,0.0,-999.0,-999,-99.99,,,0.00,weatherlink.com 1.10,2013-05-29 12:51:00,
2013-05-29 09:07:00,-43.8,-99.9,30.07,SE,144,2.0,-999.0,-999,-99.99,,,0.00,weatherlink.com 1.10,2013-05-29 13:07:00,
2013-05-29 09:21:00,-42.1,-99.9,30.07,SE,144,2.0,-999.0,-999,-99.99,,,0.00,weatherlink.com 1.10,2013-05-29 13:21:00,
2013-05-29 09:37:00,-42.1,-99.9,30.07,SSW,198,3.0,-999.0,-999,-99.99,,,0.00,weatherlink.com 1.10,2013-05-29 13:37:00,
2013-05-29 09:51:00,-40.9,-99.9,30.07,West,259,4.0,-999.0,-999,-99.99,,,0.00,weatherlink.com 1.10,2013-05-29 13:51:00,
2013-05-29 10:07:00,-39.2,-99.9,30.07,West,261,3.0,-999.0,-999,-99.99,,,0.00,weatherlink.com 1.10,2013-05-29 14:07:00,
2013-05-29 10:22:00,-38.7,-99.9,30.07,WSW,258,0.0,-999.0,-999,-99.99,,,0.00,weatherlink.com 1.10,2013-05-29 14:22:00,
2013-05-29 10:37:00,-37.8,-99.9,30.06,West,275,9.0,-999.0,-999,-99.99,,,0.01,weatherlink.com 1.10,2013-05-29 14:37:00,
2013-05-29 10:52:00,-40.9,-99.9,30.06,WSW,257,0.0,-999.0,-999,-99.99,,,0.01,weatherlink.com 1.10,2013-05-29 14:52:00,
2013-05-29 11:06:00,-41.5,-99.9,30.06,West,271,5.0,-999.0,-999,-99.99,,,0.01,weatherlink.com 1.10,2013-05-29 15:06:00,
2013-05-29 11:22:00,-50.1,-99.9,30.05,West,274,5.0,-999.0,-999,-99.99,,,0.01,weatherlink.com 1.10,2013-05-29 15:22:00,
2013-05-29 11:37:00,-59.1,-99.9,30.06,WSW,248,3.0,-999.0,-999,-99.99,,,0.01,weatherlink.com 1.10,2013-05-29 15:37:00,
2013-05-29 11:52:00,81.7,56.0,30.07,WSW,250,3.0,-999.0,42,-99.99,,,0.01,weatherlink.com 1.10,2013-05-29 15:52:00,
2013-05-29 12:07:00,81.9,58.0,30.07,SW,227,14.0,-999.0,44,-99.99,,,0.01,weatherlink.com 1.10,2013-05-29 16:07:00,
2013-05-29 12:22:00,83.3,62.0,30.07,WSW,249,5.0,-999.0,49,-99.99,,,0.01,weatherlink.com 1.10,2013-05-29 16:22:00,
2013-05-29 12:36:00,84.4,64.0,30.06,WSW,254,1.0,-999.0,51,-99.99,,,0.01,weatherlink.com 1.10,2013-05-29 16:36:00,
2013-05-29 12:51:00,83.3,64.0,30.07,SW,233,3.0,-999.0,53,-99.99,,,0.01,weatherlink.com 1.10,2013-05-29 16:51:00,
2013-05-29 13:06:00,82.3,63.0,30.07,WSW,239,5.0,-999.0,53,-99.99,,,0.01,weatherlink.com 1.10,2013-05-29 17:06:00,
2013-05-29 13:22:00,81.5,63.0,30.06,WSW,245,4.0,-999.0,53,-99.99,,,0.01,weatherlink.com 1.10,2013-05-29 17:22:00,
2013-05-29 13:36:00,81.5,63.0,30.05,West,261,2.0,-999.0,53,-99.99,,,0.01,weatherlink.com 1.10,2013-05-29 17:36:00,
2013-05-29 13:52:00,81.8,63.0,30.03,SW,236,1.0,-999.0,53,-99.99,,,0.01,weatherlink.com 1.10,2013-05-29 17:52:00,
2013-05-29 14:07:00,83.2,65.0,30.03,WSW,238,6.0,-999.0,54,-99.99,,,0.01,weatherlink.com 1.10,2013-05-29 18:07:00,
2013-05-29 14:22:00,85.1,67.0,30.02,WSW,254,4.0,-999.0,54,-99.99,,,0.01,weatherlink.com 1.10,2013-05-29 18:22:00,
2013-05-29 14:36:00,84.2,66.0,30.02,WSW,241,7.0,-999.0,54,-99.99,,,0.01,weatherlink.com 1.10,2013-05-29 18:36:00,
2013-05-29 14:52:00,83.6,65.0,30.01,WSW,250,0.0,-999.0,53,-99.99,,,0.01,weatherlink.com 1.10,2013-05-29 18:52:00,
2013-05-29 15:06:00,84.4,66.0,30.01,West,261,5.0,-999.0,54,-99.99,,,0.01,weatherlink.com 1.10,2013-05-29 19:06:00,
2013-05-29 15:22:00,85.8,68.0,30.00,SW,214,0.0,-999.0,55,-99.99,,,0.01,weatherlink.com 1.10,2013-05-29 19:22:00,
2013-05-29 15:36:00,83.2,65.0,30.01,WSW,248,3.0,-999.0,54,-99.99,,,0.01,weatherlink.com 1.10,2013-05-29 19:36:00,
2013-05-29 15:52:00,83.1,65.0,30.00,WSW,250,6.0,-999.0,54,-99.99,,,0.01,weatherlink.com 1.10,2013-05-29 19:52:00,
2013-05-29 16:06:00,80.5,61.0,30.01,North,360,3.0,-999.0,51,-99.99,,,0.01,weatherlink.com 1.10,2013-05-29 20:06:00,
2013-05-29 16:22:00,79.9,58.0,30.01,West,264,0.0,-999.0,47,-99.99,,,0.01,weatherlink.com 1.10,2013-05-29 20:22:00,
2013-05-29 16:36:00,80.7,61.0,30.00,SSW,209,3.0,-999.0,52,-99.99,,,0.01,weatherlink.com 1.10,2013-05-29 20:36:00,
2013-05-29 16:52:00,82.4,65.0,29.99,West,279,5.0,-999.0,55,-99.99,,,0.01,weatherlink.com 1.10,2013-05-29 20:52:00,
2013-05-29 17:06:00,82.4,65.0,29.99,NW,309,4.0,-999.0,55,-99.99,,,0.01,weatherlink.com 1.10,2013-05-29 21:06:00,
2013-05-29 17:22:00,83.0,65.0,30.00,SSW,212,5.0,-999.0,55,-99.99,,,0.01,weatherlink.com 1.10,2013-05-29 21:22:00,
2013-05-29 17:37:00,83.0,65.0,30.00,West,271,4.0,-999.0,55,-99.99,,,0.01,weatherlink.com 1.10,2013-05-29 21:37:00,
2013-05-29 17:52:00,83.0,65.0,30.00,West,261,7.0,-999.0,55,-99.99,,,0.01,weatherlink.com 1.10,2013-05-29 21:52:00,
2013-05-29 18:06:00,82.9,64.0,30.00,WSW,240,4.0,-999.0,53,-99.99,,,0.01,weatherlink.com 1.10,2013-05-29 22:06:00,
2013-05-29 18:22:00,82.5,64.0,30.00,WSW,244,4.0,-999.0,54,-99.99,,,0.01,weatherlink.com 1.10,2013-05-29 22:22:00,
2013-05-29 18:37:00,81.9,64.0,30.00,WSW,257,7.0,-999.0,55,-99.99,,,0.01,weatherlink.com 1.10,2013-05-29 22:37:00,
2013-05-29 18:52:00,81.5,64.0,30.00,WSW,252,3.0,-999.0,55,-99.99,,,0.01,weatherlink.com 1.10,2013-05-29 22:52:00,
2013-05-29 19:07:00,81.1,64.0,30.00,West,277,5.0,-999.0,56,-99.99,,,0.01,weatherlink.com 1.10,2013-05-29 23:07:00,
2013-05-29 19:22:00,80.8,64.0,30.00,SW,227,4.0,-999.0,56,-99.99,,,0.01,weatherlink.com 1.10,2013-05-29 23:22:00,
2013-05-29 19:37:00,80.4,63.0,29.99,WNW,303,10.0,-999.0,56,-99.99,,,0.01,weatherlink.com 1.10,2013-05-29 23:37:00,
2013-05-29 19:52:00,79.8,63.0,30.00,West,261,4.0,-999.0,57,-99.99,,,0.01,weatherlink.com 1.10,2013-05-29 23:52:00,
2013-05-29 20:07:00,79.4,63.0,30.00,WSW,245,6.0,-999.0,57,-99.99,,,0.01,weatherlink.com 1.10,2013-05-30 00:07:00,
2013-05-29 20:22:00,78.5,62.0,29.99,SW,231,2.0,-999.0,57,-99.99,,,0.01,weatherlink.com 1.10,2013-05-30 00:22:00,
2013-05-29 20:37:00,77.8,61.0,29.99,WSW,243,2.0,-999.0,56,-99.99,,,0.01,weatherlink.com 1.10,2013-05-30 00:37:00,
2013-05-29 20:52:00,77.7,60.0,29.99,WNW,282,0.0,-999.0,55,-99.99,,,0.01,weatherlink.com 1.10,2013-05-30 00:52:00,
2013-05-29 21:07:00,76.6,59.0,29.99,SW,234,0.0,-999.0,54,-99.99,,,0.01,weatherlink.com 1.10,2013-05-30 01:07:00,
2013-05-29 21:22:00,75.7,57.0,29.99,WSW,249,2.0,-999.0,53,-99.99,,,0.01,weatherlink.com 1.10,2013-05-30 01:22:00,
2013-05-29 21:37:00,75.6,57.0,29.99,WSW,258,0.0,-999.0,52,-99.99,,,0.01,weatherlink.com 1.10,2013-05-30 01:37:00,
2013-05-29 21:52:00,74.1,54.0,30.00,WSW,256,0.0,-999.0,49,-99.99,,,0.01,weatherlink.com 1.10,2013-05-30 01:52:00,
2013-05-29 22:07:00,73.3,51.0,30.00,WSW,256,0.0,-999.0,45,-99.99,,,0.01,weatherlink.com 1.10,2013-05-30 02:07:00,
2013-05-29 22:22:00,72.3,44.0,30.00,WSW,256,0.0,-999.0,36,-99.99,,,0.01,weatherlink.com 1.10,2013-05-30 02:22:00,
2013-05-29 22:37:00,72.1,39.0,30.00,WSW,256,0.0,-999.0,30,-99.99,,,0.01,weatherlink.com 1.10,2013-05-30 02:37:00,
2013-05-29 22:52:00,-999.0,-99.9,30.00,North,-999,-999.0,-999.0,-999,-99.99,,,0.01,weatherlink.com 1.10,2013-05-30 02:52:00,
2013-05-29 23:07:00,-999.0,-99.9,30.00,North,-999,-999.0,-999.0,-999,-99.99,,,0.01,weatherlink.com 1.10,2013-05-30 03:07:00,
2013-05-29 23:22:00,-999.0,-99.9,30.01,North,-999,-999.0,-999.0,-999,-99.99,,,0.01,weatherlink.com 1.10,2013-05-30 03:22:00,
2013-05-29 23:37:00,-999.0,-99.9,30.01,North,-999,-999.0,-999.0,-999,-99.99,,,0.01,weatherlink.com 1.10,2013-05-30 03:37:00,
2013-05-29 23:52:00,-999.0,-99.9,30.01,North,-999,-999.0,-999.0,-999,-99.99,,,0.01,weatherlink.com 1.10,2013-05-30 03:52:00,